Time;durP1;ratioP1;P1;durP2;ratioP2;P2;SDS_P1;SDS_P2;PMS_P1;PMS_P2;Temp;Humidity;BMP_temperature;BMP_pressure;BME280_temperature;BME280_humidity;BME280_pressure;Samples;Min_cycle;Max_cycle;Signal;HPM_P1;HPM_P2
2022/07/07 00:02:09;;;;;;;0.70;0.70;;;17.60;86.90;;;;;;5053431;28;20044;-69
2022/07/07 00:04:34;;;;;;;1.27;0.60;;;17.60;87.50;;;;;;5068174;28;20164;-69
2022/07/07 00:07:00;;;;;;;0.68;0.60;;;17.50;88.10;;;;;;5074196;28;20032;-69
2022/07/07 00:09:27;;;;;;;1.75;0.63;;;17.50;88.80;;;;;;5068316;28;20048;-69
2022/07/07 00:11:53;;;;;;;1.67;0.60;;;17.40;89.80;;;;;;5065831;28;20032;-69
2022/07/07 00:14:18;;;;;;;0.70;0.70;;;17.40;89.60;;;;;;5070662;28;21153;-71
2022/07/07 00:16:44;;;;;;;0.77;0.77;;;17.50;89.80;;;;;;5062648;28;20028;-72
2022/07/07 00:19:10;;;;;;;1.08;0.77;;;17.40;89.40;;;;;;5074844;28;20071;-71
2022/07/07 00:21:35;;;;;;;0.63;0.63;;;17.30;90.00;;;;;;5065972;28;20547;-71
2022/07/07 00:24:01;;;;;;;1.63;0.90;;;17.20;89.60;;;;;;5048819;28;20036;-71
2022/07/07 00:26:30;;;;;;;1.33;1.13;;;17.10;90.30;;;;;;5065023;28;20805;-71
2022/07/07 00:28:55;;;;;;;0.73;0.60;;;17.00;90.50;;;;;;5066898;28;20047;-71
2022/07/07 00:31:21;;;;;;;1.00;0.80;;;17.00;90.40;;;;;;5064609;28;20362;-71
2022/07/07 00:33:46;;;;;;;0.82;0.82;;;17.00;90.80;;;;;;5069557;28;20048;-69
2022/07/07 00:36:12;;;;;;;1.00;0.75;;;16.90;90.90;;;;;;5049049;28;20036;-68
2022/07/07 00:38:38;;;;;;;2.85;0.80;;;16.80;91.30;;;;;;5064657;28;20055;-69
2022/07/07 00:41:04;;;;;;;0.93;0.88;;;16.70;91.70;;;;;;5068631;28;20125;-70
2022/07/07 00:43:47;;;;;;;0.70;0.70;;;16.60;91.90;;;;;;5069262;28;23179;-68
2022/07/07 00:46:13;;;;;;;1.08;0.60;;;16.50;92.50;;;;;;5070083;28;20839;-69
2022/07/07 00:48:41;;;;;;;0.90;0.90;;;16.40;92.50;;;;;;5072222;28;20028;-68
2022/07/07 00:51:10;;;;;;;0.85;0.80;;;16.50;92.80;;;;;;5060195;28;20059;-69
2022/07/07 00:53:35;;;;;;;1.00;0.82;;;16.40;93.00;;;;;;5071812;28;20041;-71
2022/07/07 00:56:02;;;;;;;1.15;0.68;;;16.40;93.20;;;;;;5062359;28;20499;-71
2022/07/07 00:58:28;;;;;;;3.53;0.90;;;16.40;93.30;;;;;;5071294;28;20118;-71
2022/07/07 01:00:54;;;;;;;0.88;0.68;;;16.40;93.20;;;;;;5057554;28;20127;-71
2022/07/07 01:03:20;;;;;;;3.30;0.80;;;16.40;93.30;;;;;;5046927;28;20047;-71
2022/07/07 01:05:47;;;;;;;2.55;0.85;;;16.40;93.50;;;;;;5047778;28;20110;-71
2022/07/07 01:08:16;;;;;;;0.70;0.70;;;16.30;93.90;;;;;;5049703;28;20039;-71
2022/07/07 01:10:43;;;;;;;1.08;0.73;;;16.30;94.00;;;;;;5048046;28;20048;-71
2022/07/07 01:13:08;;;;;;;1.00;0.73;;;16.30;94.20;;;;;;5044726;28;20478;-69
2022/07/07 01:15:34;;;;;;;1.02;0.80;;;16.30;94.50;;;;;;5049963;28;20079;-69
2022/07/07 01:18:00;;;;;;;1.10;0.77;;;16.30;94.60;;;;;;5052069;28;20040;-69
2022/07/07 01:20:26;;;;;;;11.95;1.02;;;16.30;94.50;;;;;;5048720;28;20462;-69
2022/07/07 01:22:53;;;;;;;1.27;0.70;;;16.30;94.60;;;;;;5052487;28;20033;-69
2022/07/07 01:25:19;;;;;;;2.25;0.90;;;16.20;94.70;;;;;;5046400;28;20457;-69
2022/07/07 01:27:45;;;;;;;0.98;0.90;;;16.10;94.50;;;;;;5044602;28;20135;-69
2022/07/07 01:30:12;;;;;;;1.02;1.02;;;16.00;94.40;;;;;;5037570;28;20143;-69
2022/07/07 01:32:38;;;;;;;0.80;0.80;;;15.80;94.90;;;;;;5053112;28;20040;-69
2022/07/07 01:35:04;;;;;;;0.75;0.75;;;15.70;95.50;;;;;;5050789;28;20053;-69
2022/07/07 01:37:32;;;;;;;0.68;0.68;;;15.70;95.80;;;;;;5032937;28;20041;-69
2022/07/07 01:39:58;;;;;;;1.50;0.82;;;15.70;95.90;;;;;;5047638;28;20043;-69
2022/07/07 01:42:23;;;;;;;0.80;0.80;;;15.70;96.30;;;;;;5047182;28;20033;-69
2022/07/07 01:44:52;;;;;;;1.05;0.93;;;15.60;96.50;;;;;;5053318;28;20490;-70
2022/07/07 01:47:20;;;;;;;0.82;0.82;;;15.60;96.50;;;;;;5045153;28;20036;-69
2022/07/07 01:49:46;;;;;;;0.75;0.75;;;15.50;96.70;;;;;;5045562;28;20044;-72
2022/07/07 01:52:12;;;;;;;1.02;0.95;;;15.50;96.90;;;;;;5051642;28;20033;-71
2022/07/07 01:54:38;;;;;;;2.00;1.00;;;15.50;96.90;;;;;;5049221;28;20110;-71
2022/07/07 01:57:06;;;;;;;0.90;0.90;;;15.50;97.10;;;;;;5050811;28;20039;-71
2022/07/07 01:59:32;;;;;;;1.30;0.80;;;15.40;97.30;;;;;;5048996;28;20029;-71
2022/07/07 02:01:58;;;;;;;0.80;0.80;;;15.40;97.50;;;;;;5050732;28;20059;-71
2022/07/07 02:04:24;;;;;;;9.23;1.23;;;15.40;97.60;;;;;;5048370;28;20056;-71
2022/07/07 02:06:50;;;;;;;4.50;0.90;;;15.40;97.80;;;;;;5047988;28;20755;-69
2022/07/07 02:09:16;;;;;;;13.93;1.30;;;15.40;97.80;;;;;;5050939;28;20183;-70
2022/07/07 02:11:42;;;;;;;31.25;2.03;;;15.40;97.90;;;;;;5055591;28;20029;-71
2022/07/07 02:14:08;;;;;;;6.28;1.08;;;15.30;98.20;;;;;;5052319;28;20127;-71
2022/07/07 02:16:34;;;;;;;1.35;0.80;;;15.30;98.30;;;;;;5053407;28;20044;-71
2022/07/07 02:19:04;;;;;;;3.08;0.93;;;15.30;98.40;;;;;;5054946;28;20040;-71
2022/07/07 02:21:30;;;;;;;0.82;0.82;;;15.20;98.70;;;;;;5054009;28;20031;-71
2022/07/07 02:23:57;;;;;;;3.70;1.42;;;15.20;98.90;;;;;;5035897;28;20036;-71
2022/07/07 02:26:23;;;;;;;1.58;1.00;;;15.20;98.90;;;;;;5050753;28;20043;-71
2022/07/07 02:28:49;;;;;;;1.23;1.08;;;15.30;98.80;;;;;;5047193;28;20040;-69
2022/07/07 02:31:15;;;;;;;1.17;0.82;;;15.30;98.60;;;;;;5049943;28;20098;-68
2022/07/07 02:33:41;;;;;;;4.93;1.40;;;15.30;98.40;;;;;;5052280;28;20128;-69
2022/07/07 02:36:08;;;;;;;0.75;0.73;;;15.20;98.50;;;;;;5054351;28;20083;-69
2022/07/07 02:38:35;;;;;;;1.15;1.05;;;15.20;98.70;;;;;;5045545;28;20094;-69
2022/07/07 02:41:02;;;;;;;3.70;2.13;;;15.10;98.90;;;;;;5052220;28;20516;-69
2022/07/07 02:43:28;;;;;;;0.80;0.80;;;15.10;99.10;;;;;;5053195;28;20036;-69
2022/07/07 02:45:54;;;;;;;1.20;1.10;;;15.20;99.30;;;;;;5047276;28;20029;-71
2022/07/07 02:48:24;;;;;;;2.17;1.50;;;15.20;99.10;;;;;;5045259;28;20539;-69
2022/07/07 02:50:50;;;;;;;3.30;1.00;;;15.20;99.20;;;;;;5040722;28;20037;-69
2022/07/07 02:53:17;;;;;;;1.02;0.90;;;15.20;99.40;;;;;;5047895;28;20061;-68
2022/07/07 02:55:43;;;;;;;0.98;0.90;;;15.20;99.70;;;;;;5054928;28;20040;-68
2022/07/07 02:58:11;;;;;;;19.13;1.88;;;15.10;99.30;;;;;;5053750;28;20040;-69
2022/07/07 03:00:39;;;;;;;2.35;1.20;;;15.10;99.40;;;;;;5049356;28;20049;-69
2022/07/07 03:03:08;;;;;;;2.75;1.00;;;15.10;99.20;;;;;;5048592;28;20044;-69
2022/07/07 03:05:37;;;;;;;1.15;1.05;;;15.00;99.00;;;;;;5053367;28;20059;-69
2022/07/07 03:08:03;;;;;;;2.65;1.17;;;15.00;99.30;;;;;;5051215;28;20056;-71
2022/07/07 03:10:29;;;;;;;9.23;1.20;;;14.90;99.50;;;;;;5053082;28;20044;-71
2022/07/07 03:12:54;;;;;;;2.00;1.38;;;14.80;99.90;;;;;;5051376;28;20401;-71
2022/07/07 03:15:20;;;;;;;1.58;1.30;;;14.80;99.90;;;;;;5049667;28;20053;-71
2022/07/07 03:17:47;;;;;;;8.70;1.20;;;14.80;99.90;;;;;;5049732;28;20054;-72
2022/07/07 03:20:15;;;;;;;2.75;1.15;;;14.80;99.90;;;;;;5050164;28;20037;-71
2022/07/07 03:22:41;;;;;;;1.77;1.25;;;14.80;99.90;;;;;;5052721;28;20040;-69
2022/07/07 03:25:08;;;;;;;3.88;1.40;;;14.80;99.90;;;;;;5043126;28;20125;-70
2022/07/07 03:27:35;;;;;;;6.78;1.80;;;14.90;99.90;;;;;;5053576;28;20051;-71
2022/07/07 03:30:03;;;;;;;2.63;1.50;;;14.90;99.90;;;;;;5045859;28;20037;-70
2022/07/07 03:32:29;;;;;;;0.85;0.75;;;15.00;99.90;;;;;;5054409;28;20040;-71
2022/07/07 03:34:54;;;;;;;5.13;1.30;;;15.00;99.90;;;;;;5056902;28;20048;-71
2022/07/07 03:37:20;;;;;;;18.60;1.50;;;15.10;99.90;;;;;;5033728;28;20041;-71
2022/07/07 03:39:46;;;;;;;2.78;1.00;;;15.10;99.90;;;;;;5057035;28;20048;-70
2022/07/07 03:42:12;;;;;;;3.60;1.25;;;15.10;99.90;;;;;;5048219;28;20025;-70
2022/07/07 03:44:37;;;;;;;2.42;1.30;;;15.10;99.90;;;;;;5050539;28;20048;-69
2022/07/07 03:47:03;;;;;;;8.57;1.45;;;15.20;99.90;;;;;;5048347;28;20037;-69
2022/07/07 03:49:29;;;;;;;1.65;1.00;;;15.30;99.90;;;;;;5054009;28;20035;-69
2022/07/07 03:51:55;;;;;;;2.45;1.00;;;15.50;99.90;;;;;;5049782;28;20277;-69
2022/07/07 03:54:21;;;;;;;4.00;1.33;;;15.50;99.90;;;;;;5052513;28;20043;-69
2022/07/07 03:56:46;;;;;;;2.67;1.10;;;15.60;99.90;;;;;;5047276;28;20079;-69
2022/07/07 03:59:12;;;;;;;5.78;1.20;;;15.70;99.90;;;;;;5048562;28;20041;-69
2022/07/07 04:01:38;;;;;;;4.03;1.30;;;15.70;99.90;;;;;;5050503;28;20718;-69
2022/07/07 04:04:06;;;;;;;3.08;1.17;;;15.70;99.90;;;;;;5045909;28;20055;-70
2022/07/07 04:06:32;;;;;;;5.03;1.40;;;15.80;99.90;;;;;;5051668;28;20059;-71
2022/07/07 04:08:58;;;;;;;1.30;1.08;;;15.90;99.90;;;;;;5050979;28;20036;-71
2022/07/07 04:11:24;;;;;;;1.77;1.27;;;15.90;99.90;;;;;;5049805;28;20040;-71
2022/07/07 04:13:49;;;;;;;2.28;1.50;;;16.00;99.90;;;;;;5056172;28;20049;-71
2022/07/07 04:16:15;;;;;;;1.77;1.20;;;16.00;99.90;;;;;;5051369;28;20040;-71
2022/07/07 04:18:41;;;;;;;1.40;1.30;;;16.20;99.90;;;;;;5037119;28;20518;-71
2022/07/07 04:21:06;;;;;;;3.72;1.60;;;16.30;99.90;;;;;;5051928;28;20068;-70
2022/07/07 04:23:32;;;;;;;1.67;1.25;;;16.40;99.90;;;;;;5052133;28;20175;-69
2022/07/07 04:25:58;;;;;;;1.65;1.48;;;16.60;99.90;;;;;;5051072;28;20493;-69
2022/07/07 04:28:23;;;;;;;1.52;1.42;;;16.60;99.90;;;;;;5049391;28;20068;-69
2022/07/07 04:30:49;;;;;;;1.38;1.27;;;16.80;99.90;;;;;;5049119;28;20055;-69
2022/07/07 04:33:15;;;;;;;2.05;1.55;;;16.90;99.90;;;;;;5045966;28;20523;-69
2022/07/07 04:35:40;;;;;;;2.45;1.20;;;17.10;99.90;;;;;;5034857;28;20140;-70
2022/07/07 04:38:06;;;;;;;2.40;1.60;;;17.10;99.90;;;;;;5032919;28;20032;-70
2022/07/07 04:40:32;;;;;;;1.45;1.35;;;17.00;99.90;;;;;;5052227;28;20040;-70
2022/07/07 04:42:57;;;;;;;3.53;1.88;;;17.00;99.90;;;;;;5047980;28;20041;-71
2022/07/07 04:45:23;;;;;;;1.52;1.42;;;17.00;99.90;;;;;;5044720;28;24495;-71
2022/07/07 04:47:49;;;;;;;1.90;1.65;;;17.00;99.90;;;;;;5050310;28;20036;-70
2022/07/07 04:50:14;;;;;;;2.03;1.77;;;17.10;99.90;;;;;;5048700;28;20032;-71
2022/07/07 04:52:40;;;;;;;2.30;1.80;;;17.20;99.90;;;;;;5052935;28;20536;-71
2022/07/07 04:55:07;;;;;;;1.75;1.65;;;17.30;99.90;;;;;;5045986;28;20076;-71
2022/07/07 04:57:33;;;;;;;2.78;1.75;;;17.40;99.90;;;;;;5049115;28;20041;-71
2022/07/07 04:59:59;;;;;;;2.15;1.67;;;17.50;99.90;;;;;;5051363;28;20858;-71
2022/07/07 05:02:25;;;;;;;4.72;1.83;;;17.60;99.90;;;;;;5049024;28;20576;-70
2022/07/07 05:04:50;;;;;;;2.45;1.80;;;17.70;99.90;;;;;;5071130;28;20423;-69
2022/07/07 05:07:17;;;;;;;1.80;1.70;;;17.80;99.90;;;;;;5063821;28;22334;-69
2022/07/07 05:09:42;;;;;;;3.05;1.92;;;17.90;99.90;;;;;;5067264;28;20052;-69
2022/07/07 05:12:08;;;;;;;4.75;1.95;;;18.10;99.90;;;;;;5073033;28;20021;-70
2022/07/07 05:14:34;;;;;;;14.25;2.00;;;18.20;99.90;;;;;;5068638;28;20040;-70
2022/07/07 05:17:00;;;;;;;7.50;1.92;;;18.30;99.90;;;;;;5072472;28;20071;-69
2022/07/07 05:19:26;;;;;;;3.50;1.63;;;18.40;99.90;;;;;;5071218;28;20159;-69
2022/07/07 05:21:52;;;;;;;3.78;2.13;;;18.30;99.90;;;;;;5073980;28;20023;-69
2022/07/07 05:24:18;;;;;;;2.40;1.70;;;18.40;99.90;;;;;;5067262;28;20036;-69
2022/07/07 05:26:44;;;;;;;10.15;2.03;;;18.40;99.90;;;;;;5068589;28;20071;-70
2022/07/07 05:29:10;;;;;;;4.15;1.75;;;18.50;99.90;;;;;;5069147;28;20139;-71
2022/07/07 05:31:36;;;;;;;3.80;2.00;;;18.60;99.90;;;;;;5071180;28;20032;-70
2022/07/07 05:34:01;;;;;;;2.30;1.80;;;18.70;99.90;;;;;;5065989;28;20883;-71
2022/07/07 05:36:27;;;;;;;1.73;1.63;;;18.90;99.90;;;;;;5069641;28;20043;-70
2022/07/07 05:38:53;;;;;;;2.05;1.95;;;18.90;99.90;;;;;;5064779;28;20382;-73
2022/07/07 05:41:18;;;;;;;3.63;2.03;;;19.10;99.90;;;;;;5071655;28;20561;-73
2022/07/07 05:43:44;;;;;;;3.42;1.85;;;19.20;99.50;;;;;;5069109;28;20120;-73
2022/07/07 05:46:11;;;;;;;2.70;2.05;;;19.30;99.30;;;;;;5060008;28;20745;-72
2022/07/07 05:48:37;;;;;;;4.30;2.40;;;19.50;98.80;;;;;;5069238;28;20055;-72
2022/07/07 05:51:03;;;;;;;3.92;2.90;;;19.60;98.50;;;;;;5071902;28;20127;-71
2022/07/07 05:53:29;;;;;;;3.53;2.63;;;19.70;98.50;;;;;;5073829;28;20076;-73
2022/07/07 05:55:56;;;;;;;5.95;2.92;;;19.90;98.80;;;;;;5065420;28;20086;-72
2022/07/07 05:58:22;;;;;;;4.40;2.20;;;20.00;98.20;;;;;;5069251;28;20552;-71
2022/07/07 06:00:48;;;;;;;3.65;2.45;;;20.10;98.50;;;;;;5071858;28;20052;-72
2022/07/07 06:03:13;;;;;;;2.67;2.28;;;20.20;98.20;;;;;;5035147;28;20048;-71
2022/07/07 06:05:40;;;;;;;3.58;2.63;;;20.20;98.50;;;;;;5049690;28;20033;-71
2022/07/07 06:08:05;;;;;;;3.05;2.30;;;20.30;98.20;;;;;;5039802;28;20531;-72
2022/07/07 06:10:32;;;;;;;2.47;2.22;;;20.40;97.40;;;;;;5051058;28;20037;-72
2022/07/07 06:12:58;;;;;;;6.50;2.50;;;20.50;97.40;;;;;;5046467;28;20040;-72
2022/07/07 06:15:24;;;;;;;4.60;2.38;;;20.60;97.20;;;;;;5028902;28;20366;-71
2022/07/07 06:17:49;;;;;;;4.93;2.13;;;20.60;97.00;;;;;;5055323;28;20043;-72
2022/07/07 06:20:15;;;;;;;4.00;2.22;;;20.60;97.30;;;;;;5052619;28;20119;-72
2022/07/07 06:22:41;;;;;;;2.05;1.90;;;20.70;97.60;;;;;;5051342;28;20500;-71
2022/07/07 06:25:08;;;;;;;2.75;1.80;;;20.90;96.50;;;;;;5054118;28;20516;-72
2022/07/07 06:27:35;;;;;;;7.90;2.13;;;21.00;96.40;;;;;;5053670;28;20033;-72
2022/07/07 06:30:01;;;;;;;3.00;1.83;;;21.20;95.80;;;;;;5052779;28;20123;-71
2022/07/07 06:32:26;;;;;;;1.60;1.50;;;21.30;94.70;;;;;;5049834;28;20064;-72
2022/07/07 06:34:52;;;;;;;1.42;1.00;;;21.40;94.60;;;;;;5045889;28;20150;-72
2022/07/07 06:37:18;;;;;;;1.88;1.00;;;21.40;92.90;;;;;;5047364;28;20047;-74
2022/07/07 06:39:44;;;;;;;2.05;1.80;;;21.40;90.30;;;;;;5055268;28;20622;-75
2022/07/07 06:42:09;;;;;;;1.17;0.90;;;21.40;90.00;;;;;;5053661;28;20111;-74
2022/07/07 06:44:35;;;;;;;0.77;0.77;;;21.40;89.00;;;;;;5038114;28;20032;-75
2022/07/07 06:47:01;;;;;;;0.77;0.77;;;21.40;89.50;;;;;;5051177;28;20067;-71
2022/07/07 06:49:28;;;;;;;3.10;0.90;;;21.40;87.50;;;;;;5053202;28;20056;-71
2022/07/07 06:51:55;;;;;;;1.25;1.13;;;21.40;87.10;;;;;;5064886;28;20837;-71
2022/07/07 06:54:21;;;;;;;2.17;1.02;;;21.50;87.20;;;;;;5048239;28;20044;-71
2022/07/07 06:56:47;;;;;;;0.93;0.90;;;21.60;87.70;;;;;;5054868;28;20113;-70
2022/07/07 06:59:13;;;;;;;2.08;0.90;;;21.70;87.50;;;;;;5045168;28;20128;-71
2022/07/07 07:01:39;;;;;;;0.90;0.90;;;21.70;87.30;;;;;;5043928;28;20040;-70
2022/07/07 07:04:07;;;;;;;4.60;1.10;;;21.80;86.90;;;;;;5046197;28;20375;-70
2022/07/07 07:06:33;;;;;;;1.67;0.88;;;21.90;86.70;;;;;;5031504;28;20038;-71
2022/07/07 07:08:59;;;;;;;0.80;0.80;;;22.00;86.50;;;;;;5053932;28;20040;-70
2022/07/07 07:11:28;;;;;;;2.10;1.13;;;22.20;82.40;;;;;;5046155;28;20090;-72
2022/07/07 07:13:56;;;;;;;1.08;0.73;;;22.20;82.20;;;;;;5051111;28;20041;-70
2022/07/07 07:16:21;;;;;;;0.70;0.70;;;22.30;80.10;;;;;;5049031;28;20027;-71
2022/07/07 07:18:47;;;;;;;0.95;0.70;;;22.40;81.80;;;;;;5050908;28;20041;-71
2022/07/07 07:21:13;;;;;;;1.20;1.10;;;22.60;81.30;;;;;;5037852;28;20126;-70
2022/07/07 07:23:40;;;;;;;1.85;0.70;;;22.70;82.00;;;;;;5036817;28;20033;-71
2022/07/07 07:26:06;;;;;;;1.15;0.68;;;22.80;80.60;;;;;;5039860;28;20036;-70
2022/07/07 07:28:33;;;;;;;0.70;0.70;;;23.00;80.30;;;;;;5055626;28;20095;-73
2022/07/07 07:30:59;;;;;;;2.22;0.90;;;23.20;79.20;;;;;;5048268;28;20108;-71
2022/07/07 07:33:24;;;;;;;1.48;0.80;;;23.30;79.30;;;;;;5051901;28;20052;-73
2022/07/07 07:35:50;;;;;;;11.52;1.65;;;23.30;78.30;;;;;;5047268;28;20028;-73
2022/07/07 07:38:16;;;;;;;0.70;0.70;;;23.30;76.80;;;;;;5050950;28;20032;-71
2022/07/07 07:40:42;;;;;;;1.08;0.77;;;23.40;77.70;;;;;;5050422;28;20033;-69
2022/07/07 07:43:08;;;;;;;1.10;0.80;;;23.50;77.00;;;;;;5051634;28;20044;-69
2022/07/07 07:45:33;;;;;;;0.70;0.70;;;23.60;74.90;;;;;;5047033;28;20048;-69
2022/07/07 07:48:02;;;;;;;3.05;0.88;;;23.70;76.40;;;;;;5031967;28;20041;-69
2022/07/07 07:50:29;;;;;;;5.53;0.73;;;23.80;74.60;;;;;;5035168;28;20328;-73
2022/07/07 07:52:56;;;;;;;0.57;0.50;;;24.00;74.00;;;;;;5035166;28;20574;-71
2022/07/07 07:55:22;;;;;;;1.63;0.80;;;24.00;70.60;;;;;;5044284;28;20059;-71
2022/07/07 07:57:49;;;;;;;2.15;0.80;;;24.00;67.70;;;;;;5038714;28;20073;-70
2022/07/07 08:00:17;;;;;;;2.42;0.60;;;24.10;65.40;;;;;;5052239;28;20375;-71
2022/07/07 08:02:44;;;;;;;1.70;0.80;;;24.10;65.50;;;;;;5043597;28;20040;-72
2022/07/07 08:05:11;;;;;;;5.75;0.50;;;24.10;62.40;;;;;;5047400;28;20091;-70
2022/07/07 08:07:38;;;;;;;0.95;0.40;;;24.10;54.60;;;;;;5052027;28;20060;-71
2022/07/07 08:10:04;;;;;;;2.17;0.68;;;24.10;54.10;;;;;;5029461;28;20401;-67
2022/07/07 08:12:30;;;;;;;8.48;1.00;;;24.20;57.70;;;;;;5036395;28;22947;-74
2022/07/07 08:14:56;;;;;;;0.93;0.50;;;24.40;55.50;;;;;;5028396;28;20784;-70
2022/07/07 08:17:22;;;;;;;3.15;0.60;;;24.60;57.30;;;;;;5048943;28;20793;-70
2022/07/07 08:19:47;;;;;;;3.33;0.98;;;24.80;56.50;;;;;;5052409;28;20042;-68
2022/07/07 08:22:13;;;;;;;2.67;0.68;;;24.90;56.00;;;;;;5039893;28;20354;-69
2022/07/07 08:24:39;;;;;;;1.75;0.70;;;24.80;53.50;;;;;;5045951;28;20063;-70
2022/07/07 08:27:05;;;;;;;2.15;0.50;;;24.80;53.70;;;;;;5039133;28;20124;-68
2022/07/07 08:29:30;;;;;;;4.15;0.50;;;24.80;52.30;;;;;;5053146;28;20678;-72
2022/07/07 08:31:56;;;;;;;1.35;0.82;;;24.80;50.30;;;;;;5045145;28;20064;-70
2022/07/07 08:34:23;;;;;;;3.33;0.60;;;24.80;52.00;;;;;;5047491;28;20076;-70
2022/07/07 08:36:49;;;;;;;2.00;0.60;;;24.80;53.50;;;;;;5047177;28;20029;-69
2022/07/07 08:39:14;;;;;;;14.63;0.90;;;25.00;55.30;;;;;;5049239;28;20063;-68
2022/07/07 08:41:42;;;;;;;2.28;0.73;;;25.10;53.60;;;;;;5050735;28;20058;-68
2022/07/07 08:44:08;;;;;;;0.95;0.40;;;25.10;54.10;;;;;;5048288;28;20040;-69
2022/07/07 08:46:34;;;;;;;1.75;0.60;;;25.00;54.60;;;;;;5046856;28;20032;-69
2022/07/07 08:49:00;;;;;;;0.82;0.65;;;24.90;53.70;;;;;;5053535;28;20051;-68
2022/07/07 08:51:26;;;;;;;0.95;0.50;;;24.80;53.50;;;;;;5048721;28;20043;-68
2022/07/07 08:53:52;;;;;;;0.85;0.60;;;24.70;53.70;;;;;;5033298;28;20508;-68
2022/07/07 08:56:19;;;;;;;1.00;0.63;;;24.70;55.30;;;;;;5031143;28;20139;-69
2022/07/07 08:58:45;;;;;;;0.70;0.50;;;24.80;55.00;;;;;;5049362;28;20032;-68
2022/07/07 09:01:12;;;;;;;0.73;0.60;;;24.90;54.50;;;;;;5050790;28;20493;-68
2022/07/07 09:03:38;;;;;;;0.75;0.50;;;25.00;55.30;;;;;;5051506;28;20036;-67
2022/07/07 09:06:07;;;;;;;0.50;0.40;;;25.00;54.50;;;;;;5041094;28;20490;-68
2022/07/07 09:08:33;;;;;;;0.60;0.47;;;25.10;54.90;;;;;;5045262;28;20477;-67
2022/07/07 09:10:59;;;;;;;1.67;0.52;;;25.10;54.20;;;;;;5023441;28;20630;-67
2022/07/07 09:13:32;;;;;;;1.48;0.70;;;25.10;53.00;;;;;;5039990;28;20049;-69
2022/07/07 09:18:05;;;;;;;1.58;0.60;;;25.10;52.40;;;;;;5012034;28;20510;-67
2022/07/07 09:20:35;;;;;;;1.40;0.57;;;25.10;53.10;;;;;;5025929;28;20050;-67
2022/07/07 09:23:00;;;;;;;2.15;0.70;;;25.20;55.00;;;;;;5032699;28;20056;-68
2022/07/07 09:25:26;;;;;;;0.70;0.60;;;25.20;54.90;;;;;;5037301;28;20449;-70
2022/07/07 09:28:05;;;;;;;1.42;0.80;;;25.10;53.50;;;;;;5047921;28;20041;-66
2022/07/07 09:30:40;;;;;;;1.23;0.60;;;25.10;54.70;;;;;;5042663;28;20025;-66
2022/07/07 09:33:11;;;;;;;0.68;0.60;;;25.10;54.20;;;;;;5043534;28;20024;-66
2022/07/07 09:38:27;;;;;;;1.90;0.60;;;25.10;56.50;;;;;;5036887;28;20528;-66
2022/07/07 09:41:16;;;;;;;1.30;0.60;;;25.10;56.40;;;;;;5033821;28;20497;-66
2022/07/07 09:43:51;;;;;;;1.45;0.60;;;25.10;54.80;;;;;;5037903;28;20123;-65
2022/07/07 09:46:24;;;;;;;2.95;0.70;;;25.20;54.80;;;;;;5041869;28;20080;-67
2022/07/07 09:48:51;;;;;;;1.77;0.52;;;25.10;56.50;;;;;;5047084;28;20493;-66
2022/07/07 09:51:19;;;;;;;1.42;0.55;;;25.20;56.50;;;;;;5036358;28;20028;-73
2022/07/07 09:54:07;;;;;;;2.95;0.52;;;25.30;57.40;;;;;;5036486;28;20055;-71
2022/07/07 09:56:37;;;;;;;0.60;0.40;;;25.40;55.10;;;;;;5039845;28;20033;-73
2022/07/07 09:59:08;;;;;;;0.80;0.70;;;25.40;55.40;;;;;;5038194;28;20050;-74
2022/07/07 10:01:40;;;;;;;1.63;0.70;;;25.40;55.70;;;;;;5037665;28;20111;-69
2022/07/07 10:04:07;;;;;;;5.70;1.25;;;25.50;55.80;;;;;;5035849;28;20017;-66
2022/07/07 10:06:36;;;;;;;3.28;0.70;;;25.60;56.00;;;;;;5040383;28;20048;-74
2022/07/07 10:09:16;;;;;;;1.27;0.70;;;25.60;55.70;;;;;;5038585;28;20024;-76
2022/07/07 10:11:48;;;;;;;1.38;0.60;;;25.60;56.20;;;;;;5034484;28;20683;-75
2022/07/07 10:14:15;;;;;;;3.90;0.93;;;25.70;57.40;;;;;;5043817;28;20496;-77
2022/07/07 10:16:43;;;;;;;1.30;0.65;;;25.80;55.00;;;;;;5039506;28;20133;-75
2022/07/07 10:19:11;;;;;;;2.85;0.82;;;25.90;54.80;;;;;;5044588;28;20021;-73
2022/07/07 10:21:41;;;;;;;0.77;0.70;;;25.80;55.00;;;;;;5031526;28;20030;-72
2022/07/07 10:24:08;;;;;;;2.22;0.95;;;25.80;55.60;;;;;;5036099;28;20082;-74
2022/07/07 10:26:36;;;;;;;1.90;0.77;;;25.70;55.80;;;;;;5034871;28;20381;-68
2022/07/07 10:29:02;;;;;;;1.65;0.80;;;25.60;56.70;;;;;;5031980;28;20025;-67
2022/07/07 10:31:29;;;;;;;0.75;0.55;;;25.50;56.80;;;;;;5022122;28;20068;-68
2022/07/07 10:34:01;;;;;;;0.55;0.55;;;25.40;58.30;;;;;;5026063;28;20063;-68
2022/07/07 10:36:47;;;;;;;2.88;0.82;;;25.50;58.50;;;;;;5019725;28;20137;-68
2022/07/07 10:39:14;;;;;;;1.13;0.73;;;25.50;57.60;;;;;;5019121;28;20029;-67
2022/07/07 10:41:40;;;;;;;3.25;0.80;;;25.40;57.10;;;;;;5006801;28;20117;-68
2022/07/07 10:44:09;;;;;;;3.80;0.80;;;25.20;57.00;;;;;;5017063;28;20124;-84
2022/07/07 10:46:36;;;;;;;0.85;0.77;;;25.10;57.60;;;;;;5019066;28;20406;-83
2022/07/07 10:49:10;;;;;;;0.60;0.60;;;24.90;57.60;;;;;;5023612;28;20041;-80
2022/07/07 10:51:53;;;;;;;1.85;0.80;;;24.70;57.80;;;;;;5027477;28;20157;-79
2022/07/07 10:54:34;;;;;;;1.17;0.50;;;24.60;59.60;;;;;;5029965;28;20144;-79
2022/07/07 10:57:00;;;;;;;0.97;0.83;;;24.60;59.70;;;;;;5026084;28;20041;-78
2022/07/07 10:59:27;;;;;;;2.65;0.80;;;24.80;59.30;;;;;;5020800;28;20439;-76
2022/07/07 11:02:01;;;;;;;1.25;0.90;;;24.90;58.60;;;;;;5025125;28;20033;-81
2022/07/07 11:04:42;;;;;;;2.25;0.77;;;25.00;58.00;;;;;;5028732;28;20044;-68
2022/07/07 11:07:18;;;;;;;2.65;0.73;;;24.90;58.90;;;;;;5023864;28;20031;-68
2022/07/07 11:10:01;;;;;;;1.85;0.68;;;24.90;59.90;;;;;;5023476;28;20055;-68
2022/07/07 11:12:40;;;;;;;2.53;1.38;;;24.80;60.30;;;;;;5025828;28;20666;-67
2022/07/07 11:15:18;;;;;;;2.97;0.88;;;24.90;60.20;;;;;;5020632;28;20037;-66
2022/07/07 11:18:12;;;;;;;2.22;1.00;;;25.30;59.80;;;;;;5011930;28;20059;-65
2022/07/07 11:20:57;;;;;;;0.65;0.60;;;25.60;56.80;;;;;;5020061;28;20021;-80
2022/07/07 11:23:26;;;;;;;0.95;0.65;;;25.60;57.10;;;;;;5008365;28;20059;-68
2022/07/07 11:25:55;;;;;;;2.28;0.80;;;25.70;57.80;;;;;;5018106;28;20033;-66
2022/07/07 11:28:22;;;;;;;2.92;0.77;;;25.80;56.30;;;;;;5023137;28;20044;-67
2022/07/07 11:30:48;;;;;;;0.80;0.70;;;25.80;57.20;;;;;;5024820;28;20049;-68
2022/07/07 11:33:14;;;;;;;1.35;0.73;;;25.80;56.20;;;;;;5027013;28;20525;-68
2022/07/07 11:35:43;;;;;;;1.65;0.65;;;25.60;55.80;;;;;;5023965;28;20757;-67
2022/07/07 11:38:11;;;;;;;1.40;0.80;;;25.50;57.10;;;;;;5023838;28;20399;-68
2022/07/07 11:40:41;;;;;;;2.40;0.85;;;25.40;56.80;;;;;;5024895;28;20028;-80
2022/07/07 11:43:06;;;;;;;4.10;0.63;;;25.40;58.90;;;;;;5022146;28;20494;-68
2022/07/07 11:45:33;;;;;;;1.88;0.85;;;25.60;60.30;;;;;;5027125;28;20025;-68
2022/07/07 11:48:02;;;;;;;1.73;0.70;;;25.80;58.60;;;;;;5024341;28;20017;-68
2022/07/07 11:50:31;;;;;;;1.17;0.60;;;25.90;59.10;;;;;;5017901;28;20559;-67
2022/07/07 11:53:00;;;;;;;1.17;0.60;;;25.80;58.10;;;;;;5027690;28;20029;-67
2022/07/07 11:55:27;;;;;;;0.50;0.50;;;25.70;58.00;;;;;;5040690;28;20443;-67
2022/07/07 11:58:06;;;;;;;2.03;0.70;;;25.50;59.60;;;;;;5024425;28;20077;-68
2022/07/07 12:00:34;;;;;;;1.05;0.80;;;25.50;59.10;;;;;;5026306;28;20192;-80
2022/07/07 12:03:04;;;;;;;0.73;0.73;;;25.50;60.50;;;;;;5027122;28;20037;-78
2022/07/07 12:05:43;;;;;;;1.17;0.80;;;25.60;60.90;;;;;;5017438;28;20068;-80
2022/07/07 12:08:12;;;;;;;0.85;0.82;;;25.70;59.80;;;;;;5020966;28;20026;-81
2022/07/07 12:10:49;;;;;;;2.30;0.80;;;25.80;60.20;;;;;;5030521;28;20036;-78
2022/07/07 12:13:15;;;;;;;0.95;0.65;;;26.00;62.50;;;;;;5026482;28;20017;-79
2022/07/07 12:15:48;;;;;;;3.05;0.73;;;26.30;61.70;;;;;;5024481;28;20110;-78
2022/07/07 12:18:30;;;;;;;1.98;0.70;;;26.40;60.70;;;;;;5020177;28;20056;-81
2022/07/07 12:21:08;;;;;;;1.65;0.73;;;26.30;59.70;;;;;;5019686;28;20057;-67
2022/07/07 12:23:39;;;;;;;1.27;0.80;;;26.30;58.60;;;;;;5018031;28;20116;-67
2022/07/07 12:26:13;;;;;;;3.35;0.90;;;26.00;58.50;;;;;;5017850;28;20685;-66
2022/07/07 12:28:39;;;;;;;3.05;0.98;;;25.90;60.70;;;;;;5027120;28;20056;-67
2022/07/07 12:31:07;;;;;;;1.15;0.88;;;25.80;61.10;;;;;;5012517;28;20397;-67
2022/07/07 12:33:39;;;;;;;2.17;0.80;;;25.90;62.60;;;;;;5021283;28;20600;-66
2022/07/07 12:36:12;;;;;;;3.75;0.85;;;26.00;65.00;;;;;;5023937;28;20037;-68
2022/07/07 12:38:38;;;;;;;1.63;0.95;;;26.10;60.90;;;;;;5026191;28;20032;-71
2022/07/07 12:41:04;;;;;;;1.42;1.00;;;26.00;61.70;;;;;;5027365;28;20083;-71
2022/07/07 12:43:35;;;;;;;1.05;0.90;;;25.90;60.50;;;;;;5017215;28;20112;-72
2022/07/07 12:46:08;;;;;;;0.98;0.80;;;25.70;60.60;;;;;;5015100;28;20276;-73
2022/07/07 12:48:46;;;;;;;4.13;1.00;;;25.50;62.50;;;;;;5025341;28;20032;-72
2022/07/07 12:51:12;;;;;;;2.53;0.90;;;25.20;64.00;;;;;;5018773;28;20029;-69
2022/07/07 12:53:38;;;;;;;10.63;2.20;;;25.00;64.70;;;;;;5021162;28;20094;-70